Time;durP1;ratioP1;P1;durP2;ratioP2;P2;SDS_P1;SDS_P2;PMS_P1;PMS_P2;Temp;Humidity;BMP_temperature;BMP_pressure;BME280_temperature;BME280_humidity;BME280_pressure;Samples;Min_cycle;Max_cycle;Signal;HPM_P1;HPM_P2
2021/12/03 00:02:06;;;;;;;18.65;12.23;;;;;;;;;;4897531;28;99426;-71
2021/12/03 00:04:32;;;;;;;20.33;12.70;;;;;;;;;;4896244;28;99172;-71
2021/12/03 00:06:59;;;;;;;12.13;10.85;;;;;;;;;;4896846;28;98379;-71
2021/12/03 00:09:25;;;;;;;16.75;12.27;;;;;;;;;;4896356;28;99163;-72
2021/12/03 00:11:51;;;;;;;21.55;11.82;;;;;;;;;;4896533;28;99694;-70
2021/12/03 00:14:18;;;;;;;16.15;11.48;;;;;;;;;;4896910;28;99099;-71
2021/12/03 00:16:44;;;;;;;19.98;11.90;;;;;;;;;;4899690;28;99508;-71
2021/12/03 00:19:10;;;;;;;14.63;11.65;;;;;;;;;;4895302;28;98368;-71
2021/12/03 00:21:38;;;;;;;15.63;11.20;;;;;;;;;;4896752;28;100164;-71
2021/12/03 00:24:05;;;;;;;18.77;11.18;;;;;;;;;;4896331;28;99076;-71
2021/12/03 00:26:32;;;;;;;20.73;11.82;;;;;;;;;;4897116;28;97905;-71
2021/12/03 00:28:58;;;;;;;17.00;11.02;;;;;;;;;;4896472;28;98861;-71
2021/12/03 00:31:24;;;;;;;19.10;10.65;;;;;;;;;;4896159;28;99767;-72
2021/12/03 00:33:51;;;;;;;21.05;10.27;;;;;;;;;;4895976;28;99165;-71
2021/12/03 00:36:17;;;;;;;13.93;10.02;;;;;;;;;;4899101;28;100201;-71
2021/12/03 00:38:48;;;;;;;15.18;10.00;;;;;;;;;;4896456;28;98405;-71
2021/12/03 00:41:18;;;;;;;14.43;9.68;;;;;;;;;;4896338;28;99771;-71
2021/12/03 00:43:46;;;;;;;17.83;9.02;;;;;;;;;;4896773;28;99957;-71
2021/12/03 00:46:17;;;;;;;18.00;10.25;;;;;;;;;;4896595;28;98394;-71
2021/12/03 00:48:47;;;;;;;15.10;9.75;;;;;;;;;;4896137;28;99905;-71
2021/12/03 00:51:14;;;;;;;17.90;10.15;;;;;;;;;;4897225;28;98416;-71
2021/12/03 00:53:40;;;;;;;15.73;9.63;;;;;;;;;;4895219;28;98391;-71
2021/12/03 00:56:07;;;;;;;17.70;10.00;;;;;;;;;;4896860;28;99352;-71
2021/12/03 00:58:34;;;;;;;23.73;9.50;;;;;;;;;;4898235;28;100973;-71
2021/12/03 01:01:01;;;;;;;19.80;9.52;;;;;;;;;;4895940;28;100280;-71
2021/12/03 01:03:28;;;;;;;18.55;9.50;;;;;;;;;;4895315;28;101163;-71
2021/12/03 01:05:55;;;;;;;19.40;10.15;;;;;;;;;;4896738;28;98341;-72
2021/12/03 01:08:21;;;;;;;17.42;10.75;;;;;;;;;;4896224;28;99543;-71
2021/12/03 01:10:50;;;;;;;18.38;10.35;;;;;;;;;;4895619;28;100063;-71
2021/12/03 01:13:17;;;;;;;22.08;9.82;;;;;;;;;;4895402;28;98722;-70
2021/12/03 01:15:44;;;;;;;20.27;10.73;;;;;;;;;;4897243;28;99544;-71
2021/12/03 01:18:10;;;;;;;21.98;10.57;;;;;;;;;;4896180;28;99759;-71
2021/12/03 01:20:38;;;;;;;16.33;10.25;;;;;;;;;;4900975;28;98267;-71
2021/12/03 01:23:05;;;;;;;18.17;10.20;;;;;;;;;;4896169;28;99453;-72
2021/12/03 01:25:31;;;;;;;16.25;11.02;;;;;;;;;;4896446;28;98417;-71
2021/12/03 01:28:00;;;;;;;17.92;11.13;;;;;;;;;;4896076;28;99072;-71
2021/12/03 01:30:26;;;;;;;22.10;10.73;;;;;;;;;;4895500;28;99861;-71
2021/12/03 01:32:54;;;;;;;16.02;10.52;;;;;;;;;;4895768;28;98379;-71
2021/12/03 01:35:21;;;;;;;18.00;11.43;;;;;;;;;;4895407;28;100270;-71
2021/12/03 01:37:47;;;;;;;20.83;10.75;;;;;;;;;;4895344;28;99155;-71
2021/12/03 01:40:16;;;;;;;15.18;10.45;;;;;;;;;;4895842;28;97648;-70
2021/12/03 01:42:44;;;;;;;21.00;10.55;;;;;;;;;;4898536;28;98356;-71
2021/12/03 01:45:13;;;;;;;17.50;11.10;;;;;;;;;;4895510;28;98310;-71
2021/12/03 01:47:40;;;;;;;17.98;10.98;;;;;;;;;;4878205;28;100063;-71
2021/12/03 01:50:07;;;;;;;18.13;10.23;;;;;;;;;;4895083;28;99884;-71
2021/12/03 01:52:33;;;;;;;20.85;11.00;;;;;;;;;;4895367;28;98390;-71
2021/12/03 01:55:01;;;;;;;17.92;10.35;;;;;;;;;;4895077;28;98515;-71
2021/12/03 01:57:28;;;;;;;17.48;10.07;;;;;;;;;;4894866;28;100000;-71
2021/12/03 01:59:54;;;;;;;20.08;11.35;;;;;;;;;;4895310;28;98465;-71
2021/12/03 02:02:21;;;;;;;19.17;10.90;;;;;;;;;;4878068;28;102300;-70
2021/12/03 02:04:47;;;;;;;18.65;10.82;;;;;;;;;;4898520;28;99045;-71
2021/12/03 02:07:14;;;;;;;20.30;10.85;;;;;;;;;;4895273;28;98755;-71
2021/12/03 02:09:40;;;;;;;21.95;10.48;;;;;;;;;;4894430;28;99514;-71
2021/12/03 02:12:07;;;;;;;16.20;10.32;;;;;;;;;;4893232;28;99110;-71
2021/12/03 02:14:33;;;;;;;17.90;10.60;;;;;;;;;;4895159;28;99505;-71
2021/12/03 02:17:00;;;;;;;15.90;10.35;;;;;;;;;;4894667;28;99620;-71
2021/12/03 02:19:29;;;;;;;19.75;10.85;;;;;;;;;;4895041;28;98514;-71
2021/12/03 02:21:55;;;;;;;19.48;11.05;;;;;;;;;;4894825;28;99767;-71
2021/12/03 02:24:22;;;;;;;18.50;10.32;;;;;;;;;;4894270;28;99600;-71
2021/12/03 02:26:49;;;;;;;18.13;10.02;;;;;;;;;;4898170;28;98538;-71
2021/12/03 02:29:16;;;;;;;25.20;9.85;;;;;;;;;;4894908;28;98983;-70
2021/12/03 02:31:42;;;;;;;19.08;10.32;;;;;;;;;;4895674;28;98404;-71
2021/12/03 02:34:09;;;;;;;20.63;10.85;;;;;;;;;;4894736;28;99339;-70
2021/12/03 02:36:35;;;;;;;17.80;10.65;;;;;;;;;;4893888;28;100432;-71
2021/12/03 02:39:02;;;;;;;24.55;10.75;;;;;;;;;;4894445;28;99264;-72
2021/12/03 02:41:28;;;;;;;22.75;10.23;;;;;;;;;;4894726;28;99490;-70
2021/12/03 02:43:55;;;;;;;15.38;10.68;;;;;;;;;;4894284;28;99884;-71
2021/12/03 02:46:21;;;;;;;15.15;10.05;;;;;;;;;;4897927;28;98548;-71
2021/12/03 02:48:48;;;;;;;14.70;9.15;;;;;;;;;;4894222;28;99073;-71
2021/12/03 02:51:14;;;;;;;18.25;9.77;;;;;;;;;;4894931;28;98586;-72
2021/12/03 02:53:40;;;;;;;14.55;9.48;;;;;;;;;;4895701;28;99470;-71
2021/12/03 02:56:07;;;;;;;17.08;9.32;;;;;;;;;;4894817;28;99698;-71
2021/12/03 02:58:34;;;;;;;14.48;8.90;;;;;;;;;;4894972;28;98370;-71
2021/12/03 03:01:01;;;;;;;18.05;8.77;;;;;;;;;;4894815;28;99222;-72
2021/12/03 03:03:28;;;;;;;15.18;9.20;;;;;;;;;;4894896;28;99628;-71
2021/12/03 03:05:56;;;;;;;18.02;9.38;;;;;;;;;;4894776;28;98387;-72
2021/12/03 03:08:23;;;;;;;16.20;9.55;;;;;;;;;;4897966;28;99806;-70
2021/12/03 03:10:50;;;;;;;12.70;8.63;;;;;;;;;;4895049;28;99619;-70
2021/12/03 03:13:16;;;;;;;22.10;9.27;;;;;;;;;;4894760;28;99737;-71
2021/12/03 03:15:43;;;;;;;14.68;8.38;;;;;;;;;;4894780;28;99549;-71
2021/12/03 03:18:17;;;;;;;11.88;8.43;;;;;;;;;;4895564;28;97792;-71
2021/12/03 03:20:45;;;;;;;14.38;8.52;;;;;;;;;;4894818;28;99029;-71
2021/12/03 03:23:12;;;;;;;14.32;8.90;;;;;;;;;;4895859;28;99661;-72
2021/12/03 03:25:40;;;;;;;16.80;9.98;;;;;;;;;;4897702;28;99154;-71
2021/12/03 03:28:07;;;;;;;19.27;9.43;;;;;;;;;;4897457;28;100362;-71
2021/12/03 03:30:33;;;;;;;16.15;9.27;;;;;;;;;;4900944;28;99832;-72
2021/12/03 03:33:00;;;;;;;16.55;10.80;;;;;;;;;;4897884;28;99355;-71
2021/12/03 03:35:26;;;;;;;24.73;11.75;;;;;;;;;;4896739;28;99637;-71
2021/12/03 03:37:53;;;;;;;19.83;11.40;;;;;;;;;;4897231;28;98469;-71
2021/12/03 03:40:19;;;;;;;16.65;11.48;;;;;;;;;;4897283;28;99555;-72
2021/12/03 03:42:45;;;;;;;17.92;11.02;;;;;;;;;;4897472;28;99177;-72
2021/12/03 03:45:13;;;;;;;20.70;12.90;;;;;;;;;;4897402;28;98468;-71
2021/12/03 03:47:40;;;;;;;21.17;11.93;;;;;;;;;;4879959;28;100092;-72
2021/12/03 03:50:07;;;;;;;27.02;13.23;;;;;;;;;;4896567;28;100039;-71
2021/12/03 03:52:35;;;;;;;27.92;13.38;;;;;;;;;;4900300;28;98364;-71
2021/12/03 03:55:02;;;;;;;27.60;13.57;;;;;;;;;;4896591;28;99313;-71
2021/12/03 03:57:28;;;;;;;26.83;13.93;;;;;;;;;;4896908;28;98438;-71
2021/12/03 03:59:55;;;;;;;28.75;13.55;;;;;;;;;;4896971;28;99540;-71
2021/12/03 04:02:21;;;;;;;18.35;12.98;;;;;;;;;;4896443;28;99694;-71
2021/12/03 04:04:48;;;;;;;23.10;13.82;;;;;;;;;;4896925;28;98386;-71
2021/12/03 04:07:14;;;;;;;26.48;13.75;;;;;;;;;;4897356;28;99486;-71
2021/12/03 04:09:40;;;;;;;29.02;14.57;;;;;;;;;;4896470;28;100152;-71
2021/12/03 04:12:07;;;;;;;34.13;14.40;;;;;;;;;;4896360;28;98339;-72
2021/12/03 04:14:33;;;;;;;26.05;14.45;;;;;;;;;;4899202;28;99507;-71
2021/12/03 04:17:00;;;;;;;31.88;15.15;;;;;;;;;;4896482;28;98398;-73
2021/12/03 04:19:26;;;;;;;28.88;15.02;;;;;;;;;;4896660;28;99525;-71
2021/12/03 04:21:52;;;;;;;25.55;14.43;;;;;;;;;;4896518;28;99567;-72
2021/12/03 04:24:19;;;;;;;29.02;15.27;;;;;;;;;;4896584;28;98394;-71
2021/12/03 04:26:45;;;;;;;26.58;14.00;;;;;;;;;;4896515;28;99464;-71
2021/12/03 04:29:11;;;;;;;24.20;14.15;;;;;;;;;;4896197;28;100084;-71
2021/12/03 04:31:38;;;;;;;24.48;14.93;;;;;;;;;;4896601;28;97677;-72
2021/12/03 04:34:04;;;;;;;28.33;14.50;;;;;;;;;;4895842;28;98798;-72
2021/12/03 04:36:30;;;;;;;26.92;14.85;;;;;;;;;;4899130;28;99820;-71
2021/12/03 04:38:57;;;;;;;27.65;14.20;;;;;;;;;;4896101;28;100177;-71
2021/12/03 04:41:23;;;;;;;26.42;16.25;;;;;;;;;;4896058;28;99733;-71
2021/12/03 04:43:50;;;;;;;26.48;16.75;;;;;;;;;;4878959;28;98502;-72
2021/12/03 04:46:16;;;;;;;29.73;16.50;;;;;;;;;;4896169;28;99475;-71
2021/12/03 04:48:42;;;;;;;33.90;17.38;;;;;;;;;;4895680;28;101352;-72
2021/12/03 04:51:09;;;;;;;35.88;17.63;;;;;;;;;;4896444;28;98792;-71
2021/12/03 04:53:35;;;;;;;36.60;17.98;;;;;;;;;;4894755;28;99451;-71
2021/12/03 04:56:02;;;;;;;34.65;18.58;;;;;;;;;;4882376;28;98771;-71
2021/12/03 04:58:28;;;;;;;30.63;18.63;;;;;;;;;;4895171;28;98653;-71
2021/12/03 05:00:55;;;;;;;37.28;19.40;;;;;;;;;;4894740;28;99845;-71
2021/12/03 05:03:24;;;;;;;33.95;19.73;;;;;;;;;;4893447;28;100221;-71
2021/12/03 05:05:54;;;;;;;38.63;19.48;;;;;;;;;;4892858;28;100305;-72
2021/12/03 05:08:21;;;;;;;46.70;20.83;;;;;;;;;;4894157;28;99861;-70
2021/12/03 05:10:49;;;;;;;31.05;18.33;;;;;;;;;;4894111;28;98988;-72
2021/12/03 05:13:17;;;;;;;35.95;20.23;;;;;;;;;;4895190;28;99821;-71
2021/12/03 05:15:44;;;;;;;37.80;20.70;;;;;;;;;;4895634;28;99620;-71
2021/12/03 05:18:12;;;;;;;30.65;19.73;;;;;;;;;;4899033;28;98358;-71
2021/12/03 05:20:38;;;;;;;34.42;20.13;;;;;;;;;;4896150;28;98944;-72
2021/12/03 05:23:05;;;;;;;38.00;20.92;;;;;;;;;;4895696;28;98407;-71
2021/12/03 05:25:32;;;;;;;34.67;19.60;;;;;;;;;;4895643;28;99912;-71
2021/12/03 05:27:58;;;;;;;38.10;20.70;;;;;;;;;;4894538;28;100556;-71
2021/12/03 05:30:25;;;;;;;30.65;19.85;;;;;;;;;;4895873;28;98383;-71
2021/12/03 05:32:52;;;;;;;33.85;19.23;;;;;;;;;;4895638;28;99723;-71
2021/12/03 05:35:18;;;;;;;35.78;20.20;;;;;;;;;;4895254;28;99828;-71
2021/12/03 05:37:45;;;;;;;36.60;19.50;;;;;;;;;;4895985;28;98404;-72
2021/12/03 05:40:12;;;;;;;32.22;20.13;;;;;;;;;;4898602;28;99634;-71
2021/12/03 05:42:39;;;;;;;34.45;19.48;;;;;;;;;;4895119;28;98383;-72
2021/12/03 05:45:06;;;;;;;36.75;20.45;;;;;;;;;;4896112;28;99849;-71
2021/12/03 05:47:33;;;;;;;41.20;20.98;;;;;;;;;;4894974;28;100035;-71
2021/12/03 05:49:59;;;;;;;41.88;21.05;;;;;;;;;;4895451;28;98981;-71
2021/12/03 05:52:25;;;;;;;37.95;21.20;;;;;;;;;;4895025;28;99548;-71
2021/12/03 05:54:52;;;;;;;41.70;19.92;;;;;;;;;;4895086;28;99930;-70
2021/12/03 05:57:18;;;;;;;35.67;20.65;;;;;;;;;;4894873;28;98591;-71
2021/12/03 05:59:44;;;;;;;35.78;20.83;;;;;;;;;;4895360;28;99829;-71
2021/12/03 06:02:11;;;;;;;36.97;20.00;;;;;;;;;;4898042;28;99515;-71
2021/12/03 06:04:37;;;;;;;42.33;20.23;;;;;;;;;;4895165;28;99414;-70
2021/12/03 06:07:04;;;;;;;41.97;20.95;;;;;;;;;;4894825;28;99699;-71
2021/12/03 06:09:30;;;;;;;33.88;20.73;;;;;;;;;;4895522;28;97725;-71
2021/12/03 06:11:57;;;;;;;32.17;19.73;;;;;;;;;;4894478;28;98966;-70
2021/12/03 06:14:23;;;;;;;36.20;20.73;;;;;;;;;;4894750;28;99869;-71
2021/12/03 06:16:50;;;;;;;33.35;20.27;;;;;;;;;;4894563;28;99118;-71
2021/12/03 06:19:16;;;;;;;40.45;22.63;;;;;;;;;;4895068;28;100244;-70
2021/12/03 06:21:43;;;;;;;41.70;19.98;;;;;;;;;;4894627;28;100654;-70
2021/12/03 06:24:09;;;;;;;41.65;20.77;;;;;;;;;;4897673;28;98431;-70
2021/12/03 06:26:35;;;;;;;34.88;20.52;;;;;;;;;;4894218;28;99701;-71
2021/12/03 06:29:02;;;;;;;47.13;24.27;;;;;;;;;;4895063;28;98349;-71
2021/12/03 06:31:28;;;;;;;39.65;22.20;;;;;;;;;;4894899;28;99537;-71
2021/12/03 06:33:55;;;;;;;42.85;22.58;;;;;;;;;;4895122;28;98409;-71
2021/12/03 06:36:21;;;;;;;40.78;21.98;;;;;;;;;;4894762;28;98407;-71
2021/12/03 06:38:48;;;;;;;39.13;21.75;;;;;;;;;;4894408;28;99726;-71
2021/12/03 06:41:14;;;;;;;52.40;22.45;;;;;;;;;;4893990;28;100417;-71
2021/12/03 06:43:40;;;;;;;47.53;22.45;;;;;;;;;;4894660;28;98506;-71
2021/12/03 06:46:07;;;;;;;46.50;22.42;;;;;;;;;;4897626;28;99485;-71
2021/12/03 06:48:33;;;;;;;47.28;22.52;;;;;;;;;;4894501;28;98335;-71
2021/12/03 06:51:00;;;;;;;47.88;22.70;;;;;;;;;;4894951;28;99011;-71
2021/12/03 06:53:37;;;;;;;47.63;21.20;;;;;;;;;;4893960;28;99587;-71
2021/12/03 06:56:05;;;;;;;49.20;22.38;;;;;;;;;;4894425;28;98349;-72
2021/12/03 06:58:31;;;;;;;35.83;20.08;;;;;;;;;;4896668;28;99436;-71
2021/12/03 07:00:59;;;;;;;43.58;20.45;;;;;;;;;;4897596;28;99699;-71
2021/12/03 07:03:26;;;;;;;37.38;20.35;;;;;;;;;;4897983;28;98366;-71
2021/12/03 07:05:53;;;;;;;46.28;20.75;;;;;;;;;;4900122;28;99490;-71
2021/12/03 07:08:20;;;;;;;42.30;19.63;;;;;;;;;;4897708;28;98442;-71
2021/12/03 07:10:46;;;;;;;43.25;18.55;;;;;;;;;;4897683;28;99404;-71
2021/12/03 07:13:12;;;;;;;41.38;18.65;;;;;;;;;;4897253;28;99791;-70
2021/12/03 07:15:39;;;;;;;40.72;18.52;;;;;;;;;;4897795;28;98343;-71
2021/12/03 07:18:05;;;;;;;48.38;17.42;;;;;;;;;;4897468;28;100687;-70
2021/12/03 07:20:32;;;;;;;45.35;18.02;;;;;;;;;;4896965;28;99667;-70
2021/12/03 07:22:58;;;;;;;45.78;17.83;;;;;;;;;;4897977;28;97784;-71
2021/12/03 07:25:24;;;;;;;39.63;16.10;;;;;;;;;;4897322;28;98694;-71
2021/12/03 07:27:51;;;;;;;40.42;16.98;;;;;;;;;;4900353;28;99658;-70
2021/12/03 07:30:18;;;;;;;45.15;17.23;;;;;;;;;;4897048;28;99497;-71
2021/12/03 07:32:45;;;;;;;40.88;14.95;;;;;;;;;;4896978;28;100190;-71
2021/12/03 07:35:12;;;;;;;41.80;15.10;;;;;;;;;;4896552;28;98369;-71
2021/12/03 07:37:38;;;;;;;35.90;15.68;;;;;;;;;;4897213;28;99236;-70
2021/12/03 07:40:06;;;;;;;36.53;13.88;;;;;;;;;;4896878;28;100068;-76
2021/12/03 07:42:33;;;;;;;36.08;15.52;;;;;;;;;;4897153;28;98339;-73
2021/12/03 07:45:00;;;;;;;35.88;14.88;;;;;;;;;;4880484;28;99737;-73
2021/12/03 07:47:27;;;;;;;35.63;14.15;;;;;;;;;;4897158;28;99447;-74
2021/12/03 07:49:53;;;;;;;37.08;13.98;;;;;;;;;;4899893;28;98435;-75
2021/12/03 07:52:20;;;;;;;32.67;13.10;;;;;;;;;;4896765;28;99813;-75
2021/12/03 07:54:48;;;;;;;30.27;11.75;;;;;;;;;;4896706;28;99124;-71
2021/12/03 07:57:14;;;;;;;29.88;12.23;;;;;;;;;;4896918;28;100682;-71
2021/12/03 07:59:41;;;;;;;22.23;11.48;;;;;;;;;;4896514;28;99890;-71
2021/12/03 08:02:07;;;;;;;24.88;11.60;;;;;;;;;;4896974;28;98765;-72
2021/12/03 08:04:34;;;;;;;24.17;10.77;;;;;;;;;;4896534;28;99464;-72
2021/12/03 08:07:01;;;;;;;28.63;11.65;;;;;;;;;;4896514;28;99727;-74
2021/12/03 08:09:27;;;;;;;27.95;11.38;;;;;;;;;;4896733;28;98692;-71
2021/12/03 08:11:54;;;;;;;18.75;9.90;;;;;;;;;;4900021;28;99497;-74
2021/12/03 08:14:20;;;;;;;27.77;10.77;;;;;;;;;;4880188;28;98401;-73
2021/12/03 08:16:46;;;;;;;17.42;9.40;;;;;;;;;;4896567;28;99507;-73
2021/12/03 08:19:13;;;;;;;24.40;11.20;;;;;;;;;;4896390;28;100237;-73
2021/12/03 08:21:39;;;;;;;23.08;10.52;;;;;;;;;;4896479;28;98712;-73
2021/12/03 08:24:06;;;;;;;23.00;10.30;;;;;;;;;;4896520;28;98562;-72
2021/12/03 08:26:32;;;;;;;20.42;9.40;;;;;;;;;;4896189;28;99712;-73
2021/12/03 08:28:59;;;;;;;17.85;9.70;;;;;;;;;;4897006;28;98593;-73
2021/12/03 08:31:25;;;;;;;19.88;9.23;;;;;;;;;;4897021;28;99429;-74
2021/12/03 08:33:52;;;;;;;21.92;10.07;;;;;;;;;;4899698;28;99574;-70
2021/12/03 08:36:19;;;;;;;26.33;10.73;;;;;;;;;;4896733;28;99375;-72
2021/12/03 08:38:45;;;;;;;18.55;10.18;;;;;;;;;;4895628;28;99734;-71
2021/12/03 08:41:18;;;;;;;21.58;10.32;;;;;;;;;;4895834;28;98377;-73
2021/12/03 08:43:46;;;;;;;25.40;10.73;;;;;;;;;;4895438;28;99527;-71
2021/12/03 08:46:24;;;;;;;22.00;10.02;;;;;;;;;;4895156;28;99749;-72
2021/12/03 08:48:51;;;;;;;24.35;9.77;;;;;;;;;;4895519;28;99589;-72
2021/12/03 08:56:29;;;;;;;29.38;10.48;;;;;;;;;;4898800;28;100577;-72
2021/12/03 08:58:56;;;;;;;26.95;10.35;;;;;;;;;;4895358;28;99767;-71
2021/12/03 09:01:22;;;;;;;27.65;9.70;;;;;;;;;;4879447;28;97685;-71
2021/12/03 09:03:51;;;;;;;22.27;8.55;;;;;;;;;;4896728;28;98377;-71
2021/12/03 09:06:18;;;;;;;27.20;9.40;;;;;;;;;;4896326;28;99345;-71
2021/12/03 09:08:44;;;;;;;31.83;10.10;;;;;;;;;;4896256;28;99272;-71
2021/12/03 09:11:10;;;;;;;27.92;9.55;;;;;;;;;;4895284;28;100293;-71
2021/12/03 09:13:39;;;;;;;37.35;9.32;;;;;;;;;;4895956;28;99750;-71
2021/12/03 09:16:09;;;;;;;31.55;9.70;;;;;;;;;;4899720;28;98459;-71
2021/12/03 09:18:46;;;;;;;29.15;9.15;;;;;;;;;;4896219;28;99614;-71
2021/12/03 09:21:22;;;;;;;31.08;8.57;;;;;;;;;;4896072;28;98381;-71
2021/12/03 09:26:28;;;;;;;26.35;9.07;;;;;;;;;;4896454;28;98672;-71
2021/12/03 09:29:01;;;;;;;27.55;8.60;;;;;;;;;;4896343;28;98331;-71
2021/12/03 09:31:27;;;;;;;25.05;8.52;;;;;;;;;;4896425;28;99202;-71
2021/12/03 09:33:56;;;;;;;29.05;8.75;;;;;;;;;;4894524;28;100889;-72
2021/12/03 09:36:22;;;;;;;30.33;8.18;;;;;;;;;;4895647;28;99144;-71
2021/12/03 09:38:50;;;;;;;38.42;8.35;;;;;;;;;;4898842;28;99579;-71
2021/12/03 09:41:17;;;;;;;21.85;7.60;;;;;;;;;;4895796;28;98425;-71
2021/12/03 09:43:46;;;;;;;20.95;6.80;;;;;;;;;;4896237;28;98984;-71
2021/12/03 09:46:17;;;;;;;21.75;7.70;;;;;;;;;;4895983;28;99777;-72
2021/12/03 09:49:08;;;;;;;22.80;6.22;;;;;;;;;;4895345;28;98393;-72
2021/12/03 09:57:17;;;;;;;20.20;5.55;;;;;;;;;;4895567;28;98611;-72
2021/12/03 10:02:56;;;;;;;15.90;5.05;;;;;;;;;;4898888;28;99538;-71
2021/12/03 10:06:12;;;;;;;13.40;4.65;;;;;;;;;;4894904;28;98938;-71
2021/12/03 10:23:16;;;;;;;12.63;4.90;;;;;;;;;;4876543;28;98831;-71
2021/12/03 10:25:54;;;;;;;17.85;4.70;;;;;;;;;;4875702;28;99530;-72
2021/12/03 10:28:38;;;;;;;15.32;4.53;;;;;;;;;;4878676;28;99197;-72
2021/12/03 10:36:51;;;;;;;15.23;4.85;;;;;;;;;;4817946;29;99664;-72
2021/12/03 10:39:25;;;;;;;14.90;4.93;;;;;;;;;;4850974;28;99839;-70
2021/12/03 10:44:58;;;;;;;13.75;5.30;;;;;;;;;;4876271;28;99490;-72
2021/12/03 10:47:40;;;;;;;15.00;5.43;;;;;;;;;;4876363;28;98994;-70
2021/12/03 10:58:36;;;;;;;12.88;5.28;;;;;;;;;;4876078;28;100154;-70
2021/12/03 11:06:47;;;;;;;16.83;5.35;;;;;;;;;;4876051;28;99576;-71
2021/12/03 11:15:19;;;;;;;15.07;5.28;;;;;;;;;;4868070;28;99065;-70
2021/12/03 11:18:19;;;;;;;17.85;6.13;;;;;;;;;;4875702;28;98549;-71
2021/12/03 11:21:36;;;;;;;12.00;4.68;;;;;;;;;;4875257;28;99504;-71
2021/12/03 11:35:09;;;;;;;16.02;5.78;;;;;;;;;;4875991;28;98423;-72
2021/12/03 11:41:08;;;;;;;18.33;6.10;;;;;;;;;;4878609;28;99833;-70
2021/12/03 11:49:58;;;;;;;11.55;5.20;;;;;;;;;;4878454;28;98432;-71
2021/12/03 11:58:04;;;;;;;9.85;5.30;;;;;;;;;;4878795;28;98501;-71
2021/12/03 12:10:17;;;;;;;13.55;5.65;;;;;;;;;;4877891;28;99356;-71
2021/12/03 12:18:15;;;;;;;15.63;5.20;;;;;;;;;;4877729;28;99992;-70
2021/12/03 12:37:15;;;;;;;10.60;4.72;;;;;;;;;;4878228;28;99850;-72
2021/12/03 12:40:18;;;;;;;11.40;5.18;;;;;;;;;;4878101;28;98931;-72
2021/12/03 12:47:13;;;;;;;10.75;5.28;;;;;;;;;;4878082;28;99355;-72
2021/12/03 13:18:31;;;;;;;5.57;4.40;;;;;;;;;;4828836;29;101000;-74
2021/12/03 13:23:41;;;;;;;11.48;5.00;;;;;;;;;;4858346;29;99671;-71
2021/12/03 13:29:59;;;;;;;9.30;4.93;;;;;;;;;;4858458;29;99063;-72
2021/12/03 13:43:28;;;;;;;12.25;5.75;;;;;;;;;;4857546;29;99870;-71
2021/12/03 13:58:07;;;;;;;10.35;5.80;;;;;;;;;;4877180;28;98654;-71
2021/12/03 14:08:46;;;;;;;12.75;6.47;;;;;;;;;;4879695;28;99730;-71
2021/12/03 14:15:06;;;;;;;11.48;6.95;;;;;;;;;;4890320;28;100142;-71
2021/12/03 14:21:27;;;;;;;16.42;6.50;;;;;;;;;;4895945;28;98404;-71
2021/12/03 14:40:52;;;;;;;9.70;7.50;;;;;;;;;;4894740;28;100285;-74
2021/12/03 14:43:36;;;;;;;14.90;7.95;;;;;;;;;;4895296;28;98513;-73
2021/12/03 14:49:08;;;;;;;15.43;8.80;;;;;;;;;;4894809;28;99240;-73
2021/12/03 14:51:46;;;;;;;11.10;8.50;;;;;;;;;;4894917;28;98279;-71
2021/12/03 14:57:13;;;;;;;10.10;8.98;;;;;;;;;;4894117;28;99657;-71
2021/12/03 15:00:06;;;;;;;12.68;9.43;;;;;;;;;;4898370;28;97728;-70
2021/12/03 15:02:51;;;;;;;12.50;9.38;;;;;;;;;;4894841;28;99703;-70
2021/12/03 15:05:34;;;;;;;13.05;10.05;;;;;;;;;;4895048;28;98660;-70
2021/12/03 15:08:04;;;;;;;12.80;10.25;;;;;;;;;;4893382;28;100060;-70
2021/12/03 15:14:47;;;;;;;11.90;10.57;;;;;;;;;;4885181;28;98634;-71
2021/12/03 15:17:29;;;;;;;13.40;11.07;;;;;;;;;;4880822;28;100564;-70
2021/12/03 15:27:48;;;;;;;14.35;12.85;;;;;;;;;;4898096;28;97784;-70
2021/12/03 15:32:57;;;;;;;17.65;12.10;;;;;;;;;;4897073;28;99611;-70
2021/12/03 15:35:43;;;;;;;15.32;11.85;;;;;;;;;;4896488;28;99066;-69
2021/12/03 15:55:12;;;;;;;16.15;12.90;;;;;;;;;;4897262;28;99107;-71
2021/12/03 16:08:22;;;;;;;15.73;14.15;;;;;;;;;;4896336;28;99552;-70
2021/12/03 16:11:26;;;;;;;14.70;13.17;;;;;;;;;;4899600;28;99845;-70
2021/12/03 16:19:16;;;;;;;19.75;14.50;;;;;;;;;;4896279;28;98850;-70
2021/12/03 16:24:46;;;;;;;16.60;14.88;;;;;;;;;;4896197;28;99665;-70
2021/12/03 16:43:50;;;;;;;19.63;17.63;;;;;;;;;;4896363;28;99640;-71
2021/12/03 16:46:25;;;;;;;18.88;16.05;;;;;;;;;;4896222;28;99857;-70
2021/12/03 16:54:14;;;;;;;18.73;16.90;;;;;;;;;;4896056;28;100093;-73
2021/12/03 16:56:50;;;;;;;17.10;15.48;;;;;;;;;;4895751;28;99108;-71
2021/12/03 16:59:16;;;;;;;18.70;16.55;;;;;;;;;;4898743;28;102496;-70
2021/12/03 17:04:33;;;;;;;17.42;15.63;;;;;;;;;;4876588;28;99853;-71
2021/12/03 17:12:28;;;;;;;18.08;16.17;;;;;;;;;;4876806;28;99834;-70
2021/12/03 17:15:09;;;;;;;18.60;15.65;;;;;;;;;;4857515;29;98882;-72
2021/12/03 17:23:13;;;;;;;23.25;17.80;;;;;;;;;;4860387;29;100499;-71
2021/12/03 17:26:08;;;;;;;19.73;16.85;;;;;;;;;;4857128;29;99953;-71
2021/12/03 17:50:28;;;;;;;22.13;18.35;;;;;;;;;;4855995;29;99945;-69
2021/12/03 17:58:27;;;;;;;22.33;16.85;;;;;;;;;;4856405;29;99615;-69
2021/12/03 18:01:14;;;;;;;21.52;17.90;;;;;;;;;;4857122;29;98404;-71
2021/12/03 18:07:14;;;;;;;18.13;16.27;;;;;;;;;;4856958;29;99761;-71
2021/12/03 18:09:30;;;;;;;16.83;15.23;;;;;;;;;;4853892;29;97651;-70
2021/12/03 18:17:46;;;;;;;18.33;16.20;;;;;;;;;;4856539;29;99363;-70
2021/12/03 18:45:19;;;;;;;19.08;17.08;;;;;;;;;;4882508;28;99313;-71
2021/12/03 18:48:11;;;;;;;17.90;16.10;;;;;;;;;;4876059;28;100273;-71
2021/12/03 18:55:56;;;;;;;23.77;20.20;;;;;;;;;;4883429;28;99605;-70
2021/12/03 18:58:28;;;;;;;20.97;18.73;;;;;;;;;;4890221;28;99361;-71
2021/12/03 19:00:56;;;;;;;23.15;18.15;;;;;;;;;;4887825;28;99362;-71
2021/12/03 19:06:17;;;;;;;22.27;19.50;;;;;;;;;;4883152;28;98671;-71
2021/12/03 19:08:51;;;;;;;25.90;22.15;;;;;;;;;;4882311;28;98936;-71
2021/12/03 19:11:29;;;;;;;24.05;19.50;;;;;;;;;;4881689;28;100033;-71
2021/12/03 19:13:55;;;;;;;24.42;20.58;;;;;;;;;;4897008;28;99601;-71
2021/12/03 19:16:24;;;;;;;25.30;19.92;;;;;;;;;;4907622;28;99671;-70
2021/12/03 19:18:52;;;;;;;23.80;19.70;;;;;;;;;;4907927;28;99872;-75
2021/12/03 19:21:26;;;;;;;19.42;17.45;;;;;;;;;;4907988;28;98529;-70
2021/12/03 19:23:55;;;;;;;21.25;18.77;;;;;;;;;;4901147;28;99873;-70
2021/12/03 19:26:21;;;;;;;22.33;19.88;;;;;;;;;;4907842;28;98553;-71
2021/12/03 19:28:49;;;;;;;25.33;19.60;;;;;;;;;;4901432;28;99702;-71
2021/12/03 19:31:16;;;;;;;28.50;19.60;;;;;;;;;;4906580;28;99763;-71
2021/12/03 19:33:42;;;;;;;22.67;18.33;;;;;;;;;;4905346;28;98400;-70
2021/12/03 19:36:10;;;;;;;24.05;18.95;;;;;;;;;;4905353;28;99798;-70
2021/12/03 19:38:38;;;;;;;21.23;17.35;;;;;;;;;;4904525;28;99691;-71
2021/12/03 19:43:56;;;;;;;20.08;17.17;;;;;;;;;;4877165;28;99585;-71
2021/12/03 19:46:33;;;;;;;27.10;20.38;;;;;;;;;;4904447;28;99022;-70
2021/12/03 19:51:28;;;;;;;23.63;19.52;;;;;;;;;;4907387;28;99764;-71
2021/12/03 19:53:57;;;;;;;27.48;18.77;;;;;;;;;;4904135;28;97824;-71
2021/12/03 19:56:24;;;;;;;22.20;18.48;;;;;;;;;;4906484;28;99220;-71
2021/12/03 19:58:52;;;;;;;24.30;20.00;;;;;;;;;;4904588;28;100079;-70
2021/12/03 20:01:19;;;;;;;23.52;19.20;;;;;;;;;;4905905;28;99120;-71
2021/12/03 20:03:48;;;;;;;26.30;20.90;;;;;;;;;;4905431;28;100601;-72
2021/12/03 20:06:14;;;;;;;23.23;19.58;;;;;;;;;;4905185;28;99228;-70
2021/12/03 20:08:41;;;;;;;21.95;17.75;;;;;;;;;;4902005;28;99525;-71
2021/12/03 20:11:09;;;;;;;20.48;18.17;;;;;;;;;;4906596;28;99658;-70
2021/12/03 20:13:43;;;;;;;18.92;16.40;;;;;;;;;;4903936;28;98456;-70
2021/12/03 20:16:20;;;;;;;;;;;;;;;;;;4888556;28;99409;-70
2021/12/03 20:18:52;;;;;;;19.13;16.80;;;;;;;;;;4905782;28;102545;-69
2021/12/03 20:21:21;;;;;;;20.58;18.17;;;;;;;;;;4898420;28;98528;-70
2021/12/03 20:24:23;;;;;;;25.38;19.50;;;;;;;;;;4905548;28;100022;-71
2021/12/03 20:26:56;;;;;;;24.55;19.52;;;;;;;;;;4905335;28;103750;-72
2021/12/03 20:35:22;;;;;;;26.95;18.88;;;;;;;;;;4892626;28;98819;-71
2021/12/03 20:37:49;;;;;;;20.50;18.13;;;;;;;;;;4900969;28;99475;-72
2021/12/03 20:40:19;;;;;;;23.27;19.40;;;;;;;;;;4906203;28;99644;-70
2021/12/03 20:50:42;;;;;;;25.10;21.33;;;;;;;;;;4908509;28;98611;-71
2021/12/03 21:09:39;;;;;;;20.52;17.13;;;;;;;;;;4902206;28;99457;-71
2021/12/03 21:12:09;;;;;;;20.95;18.33;;;;;;;;;;4905279;28;98148;-70
2021/12/03 21:14:38;;;;;;;18.27;16.48;;;;;;;;;;4895416;28;99031;-71
2021/12/03 21:19:43;;;;;;;20.75;18.13;;;;;;;;;;4905347;28;99291;-69
2021/12/03 21:22:15;;;;;;;20.33;18.08;;;;;;;;;;4903827;28;99973;-71
2021/12/03 21:24:44;;;;;;;18.88;14.80;;;;;;;;;;4903583;28;98448;-71